ORMM METAR and TAF | Updated Today

ORMM METAR

Basrah International Airport

Observation time: 80 min. ago

ORMM 032100Z 25006KT CAVOK 07/00 Q1022 NOSIG

Need help? Read our tutorial on how to read METARs or read the parsed version below.

Basrah International Airport (ORMM) METAR

  • Weather conditions on Fri, 03 Dec 2021 21:00:00 +0000 (80 min. ago):
  • Present conditions: Dry
  • Clouds: Clear skies
  • Visibility: Greater than 10 km
  • Wind: 250 degrees at 6 knots
  • Temperature: 7 celsius
  • Dew point: 0 celsius
  • Pressure: 1022 millibars
  • Remarks: None


Useful to know...

ORMM TAF

Basrah International Airport

TAF ORMM 031600Z 0318/0418 28010KT CAVOK
Observation time: 6:20 hr. ago
Need help? Read our tutorial on how to read TAFs or read the parsed version below.

Parsed version of TAF for Basrah International Airport (ORMM)

  • From 03 December at 18:00 UTC, to day 04 of the month at 18:00 UTC
  • Visibility: Greater than 10 km
  • Wind: 280 degrees at 10